createdAt,value
2023-01-25T00:00:50.920Z,15.88
2023-01-25T00:03:17.859Z,17.52
2023-01-25T00:05:44.848Z,17.52
2023-01-25T00:08:11.756Z,17.25
2023-01-25T00:10:38.671Z,17.38
2023-01-25T00:13:05.577Z,16.95
2023-01-25T00:15:32.430Z,18.23
2023-01-25T00:17:59.319Z,17.75
2023-01-25T00:20:27.095Z,16.83
2023-01-25T00:22:53.978Z,18.13
2023-01-25T00:25:20.892Z,17.65
2023-01-25T00:27:47.803Z,17.92
2023-01-25T00:30:16.809Z,17.33
2023-01-25T00:32:54.475Z,16.80
2023-01-25T00:35:22.022Z,17.27
2023-01-25T00:37:51.623Z,18.23
2023-01-25T00:40:18.972Z,18.42
2023-01-25T00:42:45.964Z,17.58
2023-01-25T00:45:13.224Z,18.45
2023-01-25T00:47:40.350Z,17.80
2023-01-25T00:50:08.434Z,17.13
2023-01-25T00:52:35.438Z,17.40
2023-01-25T00:55:02.991Z,18.02
2023-01-25T00:57:30.131Z,19.20
2023-01-25T00:59:57.381Z,18.90
2023-01-25T01:02:24.286Z,19.23
2023-01-25T01:04:53.188Z,17.52
2023-01-25T01:07:20.101Z,19.08
2023-01-25T01:09:47.078Z,19.08
2023-01-25T01:12:13.975Z,18.88
2023-01-25T01:14:42.211Z,17.58
2023-01-25T01:17:09.046Z,19.40
2023-01-25T01:19:35.993Z,17.85
2023-01-25T01:22:03.054Z,19.40
2023-01-25T01:24:30.143Z,19.17
2023-01-25T01:26:57.228Z,19.50
2023-01-25T01:29:24.194Z,19.15
2023-01-25T01:31:55.756Z,19.02
2023-01-25T01:34:25.205Z,20.15
2023-01-25T01:36:52.484Z,19.80
2023-01-25T01:39:19.448Z,18.50
2023-01-25T01:41:46.393Z,18.60
2023-01-25T01:44:19.908Z,20.52
2023-01-25T01:46:57.881Z,19.55
2023-01-25T01:49:31.278Z,19.17
2023-01-25T01:52:20.266Z,18.90
2023-01-25T01:54:55.048Z,18.77
2023-01-25T01:57:26.551Z,20.15
2023-01-25T02:00:16.380Z,18.95
2023-01-25T02:02:46.286Z,19.63
2023-01-25T02:05:27.348Z,18.83
2023-01-25T02:07:55.508Z,18.75
2023-01-25T02:10:25.057Z,20.45
2023-01-25T02:12:55.494Z,20.98
2023-01-25T02:15:23.249Z,19.30
2023-01-25T02:17:51.392Z,20.00
2023-01-25T02:20:18.428Z,19.83
2023-01-25T02:23:18.089Z,19.95
2023-01-25T02:25:45.451Z,20.45
2023-01-25T02:28:32.158Z,19.52
2023-01-25T02:30:59.175Z,20.90
2023-01-25T02:33:26.931Z,20.83
2023-01-25T02:36:17.332Z,20.67
2023-01-25T02:38:54.652Z,20.52
2023-01-25T02:41:34.408Z,20.10
2023-01-25T02:44:05.051Z,20.00
2023-01-25T02:46:36.045Z,19.83
2023-01-25T02:49:05.696Z,20.50
2023-01-25T02:51:35.782Z,20.75
2023-01-25T02:54:05.438Z,20.63
2023-01-25T02:56:32.912Z,21.05
2023-01-25T02:59:05.418Z,22.42
2023-01-25T03:01:35.638Z,20.30
2023-01-25T03:04:03.232Z,20.50
2023-01-25T03:06:30.126Z,20.90
2023-01-25T03:08:57.436Z,21.33
2023-01-25T03:11:24.801Z,20.42
2023-01-25T03:13:52.195Z,20.98
2023-01-25T03:16:19.796Z,21.33
2023-01-25T03:18:46.794Z,20.75
2023-01-25T03:21:16.728Z,22.73
2023-01-25T03:23:45.628Z,23.60
2023-01-25T03:26:19.440Z,22.33
2023-01-25T03:29:12.580Z,22.95
2023-01-25T03:31:42.960Z,24.15
2023-01-25T03:34:09.967Z,22.63
2023-01-25T03:36:40.540Z,23.40
2023-01-25T03:39:07.458Z,24.42
2023-01-25T03:41:39.643Z,23.63
2023-01-25T03:44:11.580Z,22.80
2023-01-25T03:46:39.815Z,22.92
2023-01-25T03:49:06.946Z,23.77
2023-01-25T03:51:34.230Z,23.08
2023-01-25T03:54:01.703Z,23.27
2023-01-25T03:56:29.061Z,23.98
2023-01-25T03:59:06.226Z,23.65
2023-01-25T04:01:33.884Z,23.80
2023-01-25T04:04:02.390Z,23.52
2023-01-25T04:06:29.624Z,23.52
2023-01-25T04:08:57.513Z,25.85
2023-01-25T04:11:26.326Z,25.10
2023-01-25T04:13:53.936Z,25.23
2023-01-25T04:16:22.798Z,25.42
2023-01-25T04:19:09.738Z,25.17
2023-01-25T04:21:36.649Z,26.45
2023-01-25T04:24:03.814Z,26.30
2023-01-25T04:26:34.156Z,26.05
2023-01-25T04:29:02.577Z,27.45
2023-01-25T04:31:29.688Z,25.15
2023-01-25T04:33:57.874Z,27.40
2023-01-25T04:36:25.126Z,24.98
2023-01-25T04:38:52.049Z,26.33
2023-01-25T04:41:19.772Z,26.65
2023-01-25T04:43:46.641Z,26.52
2023-01-25T04:46:15.492Z,25.80
2023-01-25T04:48:42.640Z,26.45
2023-01-25T04:51:09.596Z,27.35
2023-01-25T04:53:36.810Z,26.08
2023-01-25T04:56:06.875Z,27.85
2023-01-25T04:58:42.180Z,27.90
2023-01-25T05:01:10.290Z,26.77
2023-01-25T05:03:37.732Z,27.75
2023-01-25T05:06:08.943Z,26.95
2023-01-25T05:08:35.985Z,26.83
2023-01-25T05:11:03.557Z,26.85
2023-01-25T05:13:56.662Z,26.52
2023-01-25T05:16:32.861Z,26.42
2023-01-25T05:19:00.392Z,25.52
2023-01-25T05:21:59.220Z,25.75
2023-01-25T05:24:34.543Z,26.48
2023-01-25T05:27:05.306Z,25.67
2023-01-25T05:30:01.087Z,28.02
2023-01-25T05:33:00.153Z,27.15
2023-01-25T05:35:27.723Z,26.85
2023-01-25T05:37:57.601Z,26.13
2023-01-25T05:40:26.132Z,27.10
2023-01-25T05:43:02.302Z,25.77
2023-01-25T05:45:30.642Z,27.00
2023-01-25T05:47:58.919Z,26.63
2023-01-25T05:50:26.697Z,24.98
2023-01-25T05:53:09.325Z,26.85
2023-01-25T05:55:37.691Z,27.05
2023-01-25T05:58:09.061Z,24.83
2023-01-25T06:00:35.943Z,24.67
2023-01-25T06:03:04.079Z,23.27
2023-01-25T06:05:33.696Z,25.13
2023-01-25T06:08:00.551Z,24.60
2023-01-25T06:10:34.727Z,26.23
2023-01-25T06:13:02.387Z,26.90
2023-01-25T06:15:29.279Z,25.33
2023-01-25T06:18:06.641Z,26.15
2023-01-25T06:20:45.649Z,27.13
2023-01-25T06:23:12.586Z,24.52
2023-01-25T06:25:39.504Z,26.58
2023-01-25T06:28:06.629Z,27.10
2023-01-25T06:30:33.535Z,26.95
2023-01-25T06:33:00.839Z,27.45
2023-01-25T06:35:28.847Z,28.35
2023-01-25T06:37:56.832Z,28.70
2023-01-25T06:40:24.060Z,26.90
2023-01-25T06:42:50.917Z,28.33
2023-01-25T06:45:18.063Z,26.85
2023-01-25T06:47:46.674Z,28.98
2023-01-25T06:50:14.372Z,28.80
2023-01-25T06:52:41.270Z,28.92
2023-01-25T06:55:10.472Z,28.08
2023-01-25T06:57:37.482Z,27.15
2023-01-25T07:00:04.976Z,28.33
2023-01-25T07:02:31.911Z,28.38
2023-01-25T07:04:58.766Z,29.17
2023-01-25T07:07:25.581Z,29.73
2023-01-25T07:09:52.498Z,28.63
2023-01-25T07:12:20.309Z,29.33
2023-01-25T07:14:48.511Z,28.52
2023-01-25T07:17:15.636Z,28.98
2023-01-25T07:19:42.548Z,28.73
2023-01-25T07:22:09.443Z,29.10
2023-01-25T07:24:36.323Z,30.50
2023-01-25T07:27:03.248Z,30.65
2023-01-25T07:29:30.241Z,29.25
2023-01-25T07:31:57.244Z,28.38
2023-01-25T07:34:24.211Z,27.13
2023-01-25T07:36:51.028Z,28.65
2023-01-25T07:39:17.902Z,27.20
2023-01-25T07:41:45.273Z,29.38
2023-01-25T07:44:13.652Z,29.27
2023-01-25T07:46:47.408Z,26.95
2023-01-25T07:49:14.345Z,29.55
2023-01-25T07:51:41.283Z,28.25
2023-01-25T07:54:11.041Z,28.10
2023-01-25T07:56:40.393Z,26.50
2023-01-25T07:59:08.354Z,29.90
2023-01-25T08:01:36.913Z,29.55
2023-01-25T08:04:05.428Z,30.02
2023-01-25T08:06:35.921Z,28.23
2023-01-25T08:09:07.432Z,28.27
2023-01-25T08:11:34.778Z,28.77
2023-01-25T08:14:03.183Z,27.67
2023-01-25T08:16:31.561Z,30.50
2023-01-25T08:19:00.626Z,26.63
2023-01-25T08:21:31.385Z,28.88
2023-01-25T08:23:59.900Z,29.52
2023-01-25T08:26:27.494Z,29.42
2023-01-25T08:28:54.473Z,30.65
2023-01-25T08:31:24.253Z,28.73
2023-01-25T08:33:52.222Z,29.25
2023-01-25T08:36:20.033Z,29.65
2023-01-25T08:38:47.754Z,28.95
2023-01-25T08:41:19.707Z,29.33
2023-01-25T08:43:47.273Z,30.27
2023-01-25T08:46:16.434Z,30.55
2023-01-25T08:48:43.395Z,31.83
2023-01-25T08:51:13.796Z,31.20
2023-01-25T08:53:41.037Z,31.95
2023-01-25T08:56:12.901Z,30.55
2023-01-25T08:58:42.294Z,33.33
2023-01-25T09:01:10.993Z,30.73
2023-01-25T09:03:40.295Z,31.63
2023-01-25T09:06:08.918Z,32.97
2023-01-25T09:08:37.955Z,32.63
2023-01-25T09:11:19.532Z,30.80
2023-01-25T09:13:48.500Z,31.33
2023-01-25T09:16:28.118Z,31.02
2023-01-25T09:19:00.624Z,31.40
2023-01-25T09:21:28.079Z,31.30
2023-01-25T09:24:11.281Z,30.98
2023-01-25T09:26:43.002Z,31.83
2023-01-25T09:29:11.953Z,29.80
2023-01-25T09:31:45.718Z,29.65
2023-01-25T09:34:32.879Z,28.73
2023-01-25T09:36:59.766Z,29.42
2023-01-25T09:39:26.674Z,27.20
2023-01-25T09:42:22.421Z,31.10
2023-01-25T09:45:01.211Z,24.33
2023-01-25T09:47:36.885Z,25.13
2023-01-25T09:50:07.676Z,29.35
2023-01-25T09:52:59.688Z,26.05
2023-01-25T09:55:29.729Z,30.08
2023-01-25T09:58:00.364Z,29.13
2023-01-25T10:00:34.725Z,29.50
2023-01-25T10:03:22.479Z,28.13
2023-01-25T10:05:53.057Z,29.48
2023-01-25T10:08:44.004Z,30.63
2023-01-25T10:11:30.736Z,32.60
2023-01-25T10:13:59.619Z,30.02
2023-01-25T10:16:37.634Z,30.70
2023-01-25T10:19:13.662Z,29.40
2023-01-25T10:22:21.160Z,32.25
2023-01-25T10:25:19.401Z,27.42
2023-01-25T10:28:04.079Z,28.48
2023-01-25T10:30:58.815Z,31.52
2023-01-25T10:33:28.293Z,31.95
2023-01-25T10:35:57.996Z,30.10
2023-01-25T10:38:47.156Z,30.45
2023-01-25T10:41:20.462Z,31.25
2023-01-25T10:43:47.903Z,32.05
2023-01-25T10:46:23.390Z,31.73
2023-01-25T10:48:50.560Z,32.20
2023-01-25T10:51:33.312Z,31.38
2023-01-25T10:54:03.852Z,29.30
2023-01-25T10:56:37.039Z,31.38
2023-01-25T10:59:17.545Z,27.42
2023-01-25T11:01:44.614Z,28.88
2023-01-25T11:04:34.397Z,31.27
2023-01-25T11:07:05.022Z,29.80
2023-01-25T11:09:35.211Z,31.10
2023-01-25T11:12:07.457Z,28.63
2023-01-25T11:17:04.154Z,28.38
2023-01-25T11:19:38.413Z,32.03
2023-01-25T11:22:26.090Z,30.90
2023-01-25T11:24:53.029Z,30.63
2023-01-25T11:27:24.115Z,30.90
2023-01-25T11:30:07.343Z,32.22
2023-01-25T11:32:34.386Z,33.00
2023-01-25T11:35:01.562Z,31.70
2023-01-25T11:37:59.765Z,31.45
2023-01-25T11:40:38.904Z,28.63
2023-01-25T11:43:25.537Z,33.65
2023-01-25T11:46:02.759Z,30.73
2023-01-25T11:48:48.465Z,29.55
2023-01-25T11:51:18.157Z,29.83
2023-01-25T11:53:56.212Z,27.80
2023-01-25T11:56:45.857Z,32.58
2023-01-25T11:59:31.637Z,34.63
2023-01-25T12:02:25.274Z,27.67
2023-01-25T12:05:22.214Z,29.73
2023-01-25T12:08:20.788Z,29.48
2023-01-25T12:10:54.705Z,30.05
2023-01-25T12:13:41.166Z,30.20
2023-01-25T12:16:28.442Z,29.75
2023-01-25T12:19:13.364Z,28.75
2023-01-25T12:22:09.447Z,29.08
2023-01-25T12:24:51.821Z,28.40
2023-01-25T12:27:42.895Z,28.98
2023-01-25T12:30:27.161Z,29.92
2023-01-25T12:33:14.000Z,29.08
2023-01-25T12:36:05.163Z,30.73
2023-01-25T12:39:00.077Z,28.02
2023-01-25T12:41:52.014Z,27.48
2023-01-25T12:44:32.757Z,29.27
2023-01-25T12:47:05.479Z,28.75
2023-01-25T12:49:56.526Z,28.95
2023-01-25T12:52:23.437Z,30.35
2023-01-25T12:54:51.850Z,30.10
2023-01-25T12:57:29.522Z,26.85
2023-01-25T13:00:18.975Z,23.83
2023-01-25T13:03:24.529Z,27.98
2023-01-25T13:05:54.115Z,28.50
2023-01-25T13:08:59.721Z,27.17
2023-01-25T13:11:38.778Z,27.40
2023-01-25T13:14:18.052Z,25.92
2023-01-25T13:17:09.033Z,26.63
2023-01-25T13:19:36.879Z,27.33
2023-01-25T13:22:04.973Z,28.23
2023-01-25T13:24:33.887Z,28.42
2023-01-25T13:27:23.308Z,26.67
2023-01-25T13:30:01.269Z,29.10
2023-01-25T13:32:28.199Z,30.58
2023-01-25T13:34:55.180Z,30.02
2023-01-25T13:37:33.187Z,30.33
2023-01-25T13:40:18.736Z,29.95
2023-01-25T13:43:03.700Z,30.63
2023-01-25T13:45:33.562Z,28.90
2023-01-25T13:48:22.314Z,30.70
2023-01-25T13:50:57.655Z,29.33
2023-01-25T13:53:33.245Z,29.98
2023-01-25T13:56:00.767Z,29.55
2023-01-25T13:58:48.074Z,30.17
2023-01-25T14:01:18.590Z,30.48
2023-01-25T14:04:02.289Z,31.33
2023-01-25T14:06:30.539Z,31.67
2023-01-25T14:09:00.791Z,31.90
2023-01-25T14:11:31.038Z,32.50
2023-01-25T14:14:01.055Z,30.60
2023-01-25T14:16:30.093Z,32.67
2023-01-25T14:19:18.468Z,32.88
2023-01-25T14:21:45.396Z,31.65
2023-01-25T14:24:16.787Z,32.88
2023-01-25T14:26:46.342Z,34.72
2023-01-25T14:29:35.271Z,32.92
2023-01-25T14:32:02.306Z,31.60
2023-01-25T14:34:29.213Z,32.22
2023-01-25T14:37:18.248Z,33.88
2023-01-25T14:39:46.730Z,32.42
2023-01-25T14:42:14.955Z,32.35
2023-01-25T14:44:42.157Z,28.70
2023-01-25T14:47:32.228Z,30.10
2023-01-25T14:50:36.444Z,31.17
2023-01-25T14:53:24.926Z,27.80
2023-01-25T14:55:52.061Z,28.00
2023-01-25T14:58:23.667Z,29.60
2023-01-25T15:01:00.062Z,31.40
2023-01-25T15:03:29.761Z,32.20
2023-01-25T15:06:01.245Z,33.58
2023-01-25T15:08:38.530Z,31.67
2023-01-25T15:11:24.217Z,32.20
2023-01-25T15:14:01.886Z,27.33
2023-01-25T15:16:36.231Z,31.48
2023-01-25T15:19:03.235Z,32.20
2023-01-25T15:21:32.119Z,33.60
2023-01-25T15:24:04.887Z,33.58
2023-01-25T15:26:34.420Z,33.67
2023-01-25T15:29:12.139Z,33.05
2023-01-25T15:31:39.308Z,33.10
2023-01-25T15:34:06.660Z,33.67
2023-01-25T15:36:33.763Z,35.63
2023-01-25T15:39:00.741Z,36.92
2023-01-25T15:41:27.604Z,34.25
2023-01-25T15:43:54.458Z,34.30
2023-01-25T15:46:24.791Z,31.92
2023-01-25T15:48:52.680Z,32.13
2023-01-25T15:51:20.209Z,33.75
2023-01-25T15:53:47.201Z,33.90
2023-01-25T15:56:27.646Z,32.55
2023-01-25T15:58:57.683Z,33.25
2023-01-25T16:01:27.355Z,32.10
2023-01-25T16:03:59.241Z,32.83
2023-01-25T16:06:31.931Z,31.48
2023-01-25T16:09:05.981Z,33.42
2023-01-25T16:11:32.882Z,31.42
2023-01-25T16:13:59.749Z,30.85
2023-01-25T16:16:27.106Z,30.08
2023-01-25T16:18:54.015Z,27.45
2023-01-25T16:21:20.877Z,32.70
2023-01-25T16:23:47.765Z,33.33
2023-01-25T16:26:25.664Z,32.35
2023-01-25T16:28:52.722Z,30.10
2023-01-25T16:31:31.936Z,23.80
2023-01-25T16:34:00.138Z,27.50
2023-01-25T16:36:27.201Z,28.27
2023-01-25T16:38:54.113Z,30.50
2023-01-25T16:41:21.019Z,30.63
2023-01-25T16:43:49.106Z,29.85
2023-01-25T16:46:21.729Z,29.83
2023-01-25T16:48:51.020Z,28.90
2023-01-25T16:51:24.450Z,26.42
2023-01-25T16:53:53.407Z,25.15
2023-01-25T16:56:26.003Z,18.48
2023-01-25T16:58:54.870Z,26.02
2023-01-25T17:01:23.485Z,28.98
2023-01-25T17:03:50.718Z,30.02
2023-01-25T17:06:29.741Z,32.22
2023-01-25T17:09:00.293Z,31.17
2023-01-25T17:11:29.253Z,29.67
2023-01-25T17:13:59.277Z,29.88
2023-01-25T17:16:28.389Z,31.73
2023-01-25T17:19:00.076Z,33.65
2023-01-25T17:21:27.741Z,31.00
2023-01-25T17:23:57.931Z,32.45
2023-01-25T17:26:25.797Z,30.45
2023-01-25T17:28:56.698Z,29.05
2023-01-25T17:31:29.376Z,30.67
2023-01-25T17:33:56.589Z,32.80
2023-01-25T17:36:23.812Z,31.50
2023-01-25T17:38:50.757Z,30.42
2023-01-25T17:41:17.685Z,31.00
2023-01-25T17:43:44.597Z,33.45
2023-01-25T17:46:15.495Z,32.40
2023-01-25T17:48:42.742Z,32.38
2023-01-25T17:51:09.658Z,34.83
2023-01-25T17:53:36.560Z,33.33
2023-01-25T17:56:05.113Z,34.15
2023-01-25T17:58:36.704Z,33.35
2023-01-25T18:01:33.078Z,33.60
2023-01-25T18:04:00.757Z,36.25
2023-01-25T18:06:30.958Z,33.60
2023-01-25T18:09:00.171Z,36.47
2023-01-25T18:11:32.719Z,33.00
2023-01-25T18:14:02.442Z,34.20
2023-01-25T18:16:31.327Z,35.08
2023-01-25T18:19:00.179Z,35.50
2023-01-25T18:21:32.229Z,32.53
2023-01-25T18:24:02.168Z,35.83
2023-01-25T18:26:35.556Z,34.22
2023-01-25T18:29:43.357Z,34.00
2023-01-25T18:32:10.216Z,34.45
2023-01-25T18:34:37.091Z,32.53
2023-01-25T18:37:18.744Z,33.40
2023-01-25T18:39:50.262Z,34.35
2023-01-25T18:42:17.793Z,35.53
2023-01-25T18:44:48.237Z,37.90
2023-01-25T18:47:18.801Z,32.65
2023-01-25T18:49:47.582Z,36.67
2023-01-25T18:52:16.067Z,36.13
2023-01-25T18:54:44.059Z,33.55
2023-01-25T18:57:13.145Z,35.33
2023-01-25T18:59:40.494Z,36.38
2023-01-25T19:02:09.907Z,37.15
2023-01-25T19:04:36.810Z,35.13
2023-01-25T19:07:04.754Z,35.17
2023-01-25T19:09:32.078Z,36.97
2023-01-25T19:11:59.307Z,37.72
2023-01-25T19:14:26.521Z,37.22
2023-01-25T19:16:53.439Z,38.15
2023-01-25T19:19:23.560Z,39.58
2023-01-25T19:21:50.531Z,38.45
2023-01-25T19:24:19.561Z,39.47
2023-01-25T19:26:47.467Z,37.60
2023-01-25T19:29:15.158Z,41.10
2023-01-25T19:31:42.243Z,40.17
2023-01-25T19:34:09.230Z,39.05
2023-01-25T19:36:38.189Z,40.00
2023-01-25T19:39:10.040Z,41.65
2023-01-25T19:41:38.912Z,39.20
2023-01-25T19:44:09.374Z,39.17
2023-01-25T19:46:37.107Z,39.78
2023-01-25T19:49:06.224Z,38.88
2023-01-25T19:51:35.513Z,40.17
2023-01-25T19:54:09.802Z,41.30
2023-01-25T19:56:39.419Z,37.10
2023-01-25T19:59:28.328Z,40.78
2023-01-25T20:01:55.339Z,40.90
2023-01-25T20:04:23.793Z,41.15
2023-01-25T20:06:51.331Z,40.90
2023-01-25T20:09:20.136Z,41.60
2023-01-25T20:11:47.499Z,42.28
2023-01-25T20:14:14.965Z,40.65
2023-01-25T20:16:42.131Z,41.53
2023-01-25T20:19:12.215Z,39.55
2023-01-25T20:21:39.874Z,43.15
2023-01-25T20:24:08.677Z,42.05
2023-01-25T20:26:38.922Z,41.10
2023-01-25T20:29:06.801Z,40.83
2023-01-25T20:31:36.614Z,43.08
2023-01-25T20:34:10.510Z,39.58
2023-01-25T20:36:37.594Z,42.85
2023-01-25T20:39:06.530Z,42.38
2023-01-25T20:41:33.834Z,44.10
2023-01-25T20:44:06.922Z,43.50
2023-01-25T20:46:35.126Z,45.10
2023-01-25T20:49:02.884Z,43.88
2023-01-25T20:51:29.786Z,44.15
2023-01-25T20:53:57.373Z,43.60
2023-01-25T20:56:24.613Z,44.78
2023-01-25T20:58:52.411Z,45.17
2023-01-25T21:01:38.363Z,46.70
2023-01-25T21:04:07.976Z,44.28
2023-01-25T21:06:35.446Z,45.63
2023-01-25T21:09:03.251Z,41.75
2023-01-25T21:11:30.393Z,44.70
2023-01-25T21:13:58.349Z,47.95
2023-01-25T21:16:25.446Z,42.38
2023-01-25T21:18:54.990Z,45.53
2023-01-25T21:21:27.838Z,43.00
2023-01-25T21:23:57.661Z,45.90
2023-01-25T21:26:27.094Z,45.90
2023-01-25T21:28:57.867Z,47.50
2023-01-25T21:31:33.295Z,44.60
2023-01-25T21:34:01.211Z,43.58
2023-01-25T21:36:28.647Z,43.78
2023-01-25T21:38:56.120Z,46.28
2023-01-25T21:41:29.572Z,42.90
2023-01-25T21:44:17.512Z,44.55
2023-01-25T21:47:04.204Z,45.08
2023-01-25T21:49:50.618Z,46.80
2023-01-25T21:52:17.505Z,46.35
2023-01-25T21:54:44.467Z,47.33
2023-01-25T21:57:11.735Z,46.30
2023-01-25T21:59:40.753Z,48.00
2023-01-25T22:02:11.472Z,48.67
2023-01-25T22:04:38.501Z,48.80
2023-01-25T22:07:08.405Z,47.97
2023-01-25T22:09:35.391Z,44.35
2023-01-25T22:12:02.372Z,45.95
2023-01-25T22:14:29.406Z,46.60
2023-01-25T22:16:56.412Z,45.70
2023-01-25T22:19:23.682Z,43.58
2023-01-25T22:21:50.570Z,46.60
2023-01-25T22:24:17.641Z,44.72
2023-01-25T22:26:59.506Z,46.10
2023-01-25T22:29:26.624Z,43.83
2023-01-25T22:31:53.648Z,43.88
2023-01-25T22:34:20.513Z,47.38
2023-01-25T22:36:48.520Z,46.15
2023-01-25T22:39:16.071Z,47.85
2023-01-25T22:41:43.055Z,45.60
2023-01-25T22:44:10.078Z,44.90
2023-01-25T22:46:37.296Z,47.10
2023-01-25T22:49:04.854Z,46.30
2023-01-25T22:51:32.473Z,48.45
2023-01-25T22:54:00.100Z,46.83
2023-01-25T22:56:32.717Z,46.28
2023-01-25T22:59:00.512Z,47.58
2023-01-25T23:01:29.926Z,48.80
2023-01-25T23:03:57.382Z,47.60
2023-01-25T23:06:30.456Z,48.83
2023-01-25T23:09:00.049Z,48.13
2023-01-25T23:11:35.414Z,48.40
2023-01-25T23:14:24.682Z,45.50
2023-01-25T23:16:51.558Z,48.17
2023-01-25T23:19:18.549Z,45.83
2023-01-25T23:21:45.499Z,46.75
2023-01-25T23:24:12.588Z,48.88
2023-01-25T23:26:39.540Z,48.22
2023-01-25T23:29:09.408Z,47.40
2023-01-25T23:31:36.740Z,43.65
2023-01-25T23:34:05.812Z,46.20
2023-01-25T23:36:38.832Z,45.55
2023-01-25T23:39:06.002Z,44.83
2023-01-25T23:41:33.040Z,43.53
2023-01-25T23:44:00.876Z,47.17
2023-01-25T23:46:28.497Z,44.60
2023-01-25T23:48:55.826Z,43.40
2023-01-25T23:51:22.914Z,41.15
2023-01-25T23:53:49.772Z,44.33
2023-01-25T23:56:20.082Z,42.65
2023-01-25T23:58:48.377Z,42.13
